Gazpromneft East — UBOF4 — position and weather

sailwx.info

Track history (hours):
 
Tides and Currents Weather Stations Pressure Air Temp Water Temp Dewpoint Dewpoint Depression Visibility Wind Speed Wind Dir Waves Ship Positions

Gazpromneft East

Last reported at 2014-Jul-28 09:32 UTC. Time now 2014-Jul-28 10:26 UTC.
Position N 59°53' E 030°12'.

Length 79 m; draft 5.4 m.

Type: Tanker. MMSI: 273335320.

Date/timePositionNaut miles runAvg speedWind from/ knotsBaromVisibWave heightAir tempDewpointWater temp
2014-Jul-28 09:32N 59°53' E 030°12'4 3.7
2014-Jul-28 08:33N 59°56' E 030°17'0 0.0
2014-Jul-28 07:33N 59°56' E 030°17'0 0.0
2014-Jul-28 06:33N 59°56' E 030°17'0 0.3
2014-Jul-28 05:33N 59°56' E 030°17'3 3.3
2014-Jul-28 04:32N 59°53' E 030°13'0 0.0
2014-Jul-28 03:33N 59°53' E 030°13'0 0.0
2014-Jul-28 02:30N 59°53' E 030°13'0 0.0
2014-Jul-28 01:31N 59°53' E 030°13'0 0.0
2014-Jul-27 17:33N 59°53' E 030°13'0 0.0
2014-Jul-27 16:28N 59°53' E 030°13'0 0.0
2014-Jul-27 15:31N 59°53' E 030°13'0 0.1
2014-Jul-27 11:08N 59°53' E 030°13'0 0.1
2014-Jul-27 08:24N 59°53' E 030°12'0 0.0
2014-Jul-27 07:24N 59°53' E 030°12'0 0.0
2014-Jul-27 06:10N 59°53' E 030°12'0 0.1
2014-Jul-27 05:22N 59°53' E 030°12'4 0.3
2014-Jul-26 13:33N 59°57' E 030°09'1 0.2
2014-Jul-26 05:33N 59°57' E 030°11'4 0.2
2014-Jul-25 06:13N 59°54' E 030°07'3 1.8
2014-Jul-25 04:33N 59°52' E 030°12'1 0.1
2014-Jul-24 19:26N 59°54' E 030°14'0 0.0
2014-Jul-24 18:11N 59°54' E 030°14'0 0.0
2014-Jul-24 17:29N 59°54' E 030°14'0 0.0
2014-Jul-24 16:11N 59°54' E 030°14'0 0.0
2014-Jul-24 14:15N 59°54' E 030°14'0 0.0
2014-Jul-24 13:16N 59°54' E 030°14'0 0.0
2014-Jul-24 11:31N 59°54' E 030°14'3 0.5
2014-Jul-24 05:33N 59°54' E 030°07'0 0.0
2014-Jul-23 09:05N 59°54' E 030°07'3 0.7
2014-Jul-23 04:10N 59°53' E 030°13'0 0.4
2014-Jul-23 03:22N 59°54' E 030°14'0 0.0
2014-Jul-22 19:19N 59°54' E 030°14'1 0.8
2014-Jul-22 18:29N 59°53' E 030°12'1 0.5
2014-Jul-22 17:29N 59°53' E 030°11'0 0.0
2014-Jul-22 15:05N 59°53' E 030°11'0 0.0
2014-Jul-22 14:15N 59°53' E 030°11'0 0.0
2014-Jul-22 13:27N 59°53' E 030°11'0 0.0
2014-Jul-22 12:32N 59°53' E 030°11'0 0.0
2014-Jul-22 08:08N 59°53' E 030°11'0 0.0
2014-Jul-22 06:30N 59°53' E 030°11'0 0.0
2014-Jul-22 05:09N 59°53' E 030°11'1 1.2
2014-Jul-22 04:26N 59°53' E 030°13'1 0.1
2014-Jul-21 20:31N 59°53' E 030°11'1 0.1
2014-Jul-21 08:23N 59°53' E 030°14'0 0.0
2014-Jul-21 07:08N 59°53' E 030°14'0 0.0
2014-Jul-21 06:32N 59°53' E 030°14'0 0.0
2014-Jul-21 05:08N 59°53' E 030°14'1 0.0
2014-Jul-20 10:33N 59°54' E 030°13'3 2.9
2014-Jul-20 09:31N 59°56' E 030°17'0 0.0
2014-Jul-20 08:28N 59°56' E 030°17'0 0.0
2014-Jul-20 07:28N 59°56' E 030°17'0 0.0
2014-Jul-20 06:33N 59°56' E 030°17'5 0.1
2014-Jul-18 12:23N 59°54' E 030°08'  
Track history (hours):
 
Tides and Currents Weather Stations Pressure Air Temp Water Temp Dewpoint Dewpoint Depression Visibility Wind Speed Wind Dir Waves Ship Positions

Gazpromneft East

Last reported at 2014-Jul-28 09:32 UTC. Time now 2014-Jul-28 10:26 UTC.
Position N 59°53' E 030°12'.

Length 79 m; draft 5.4 m.

Type: Tanker. MMSI: 273335320.

Date/timePositionNaut miles runAvg speedWind from/ knotsBaromVisibWave heightAir tempDewpointWater temp
2014-Jul-28 09:32N 59°53' E 030°12'4 3.7
2014-Jul-28 08:33N 59°56' E 030°17'0 0.0
2014-Jul-28 07:33N 59°56' E 030°17'0 0.0
2014-Jul-28 06:33N 59°56' E 030°17'0 0.3
2014-Jul-28 05:33N 59°56' E 030°17'3 3.3
2014-Jul-28 04:32N 59°53' E 030°13'0 0.0
2014-Jul-28 03:33N 59°53' E 030°13'0 0.0
2014-Jul-28 02:30N 59°53' E 030°13'0 0.0
2014-Jul-28 01:31N 59°53' E 030°13'0 0.0
2014-Jul-27 17:33N 59°53' E 030°13'0 0.0
2014-Jul-27 16:28N 59°53' E 030°13'0 0.0
2014-Jul-27 15:31N 59°53' E 030°13'0 0.1
2014-Jul-27 11:08N 59°53' E 030°13'0 0.1
2014-Jul-27 08:24N 59°53' E 030°12'0 0.0
2014-Jul-27 07:24N 59°53' E 030°12'0 0.0
2014-Jul-27 06:10N 59°53' E 030°12'0 0.1
2014-Jul-27 05:22N 59°53' E 030°12'4 0.3
2014-Jul-26 13:33N 59°57' E 030°09'1 0.2
2014-Jul-26 05:33N 59°57' E 030°11'4 0.2
2014-Jul-25 06:13N 59°54' E 030°07'3 1.8
2014-Jul-25 04:33N 59°52' E 030°12'1 0.1
2014-Jul-24 19:26N 59°54' E 030°14'0 0.0
2014-Jul-24 18:11N 59°54' E 030°14'0 0.0
2014-Jul-24 17:29N 59°54' E 030°14'0 0.0
2014-Jul-24 16:11N 59°54' E 030°14'0 0.0
2014-Jul-24 14:15N 59°54' E 030°14'0 0.0
2014-Jul-24 13:16N 59°54' E 030°14'0 0.0
2014-Jul-24 11:31N 59°54' E 030°14'3 0.5
2014-Jul-24 05:33N 59°54' E 030°07'0 0.0
2014-Jul-23 09:05N 59°54' E 030°07'3 0.7
2014-Jul-23 04:10N 59°53' E 030°13'0 0.4
2014-Jul-23 03:22N 59°54' E 030°14'0 0.0
2014-Jul-22 19:19N 59°54' E 030°14'1 0.8
2014-Jul-22 18:29N 59°53' E 030°12'1 0.5
2014-Jul-22 17:29N 59°53' E 030°11'0 0.0
2014-Jul-22 15:05N 59°53' E 030°11'0 0.0
2014-Jul-22 14:15N 59°53' E 030°11'0 0.0
2014-Jul-22 13:27N 59°53' E 030°11'0 0.0
2014-Jul-22 12:32N 59°53' E 030°11'0 0.0
2014-Jul-22 08:08N 59°53' E 030°11'0 0.0
2014-Jul-22 06:30N 59°53' E 030°11'0 0.0
2014-Jul-22 05:09N 59°53' E 030°11'1 1.2
2014-Jul-22 04:26N 59°53' E 030°13'1 0.1
2014-Jul-21 20:31N 59°53' E 030°11'1 0.1
2014-Jul-21 08:23N 59°53' E 030°14'0 0.0
2014-Jul-21 07:08N 59°53' E 030°14'0 0.0
2014-Jul-21 06:32N 59°53' E 030°14'0 0.0
2014-Jul-21 05:08N 59°53' E 030°14'1 0.0
2014-Jul-20 10:33N 59°54' E 030°13'3 2.9
2014-Jul-20 09:31N 59°56' E 030°17'0 0.0
2014-Jul-20 08:28N 59°56' E 030°17'0 0.0
2014-Jul-20 07:28N 59°56' E 030°17'0 0.0
2014-Jul-20 06:33N 59°56' E 030°17'5 0.1
2014-Jul-18 12:23N 59°54' E 030°08'  

Dump ship's entire track history